Latest Weather Observations for Tidbinbilla

IDN60801

Issued at 2:43 pm EDT Tuesday 18 January 2022 (issued every 10 minutes, with the page automatically refreshed every 10 minutes)

About weather observations | Map of weather stations | Latest weather observations for NSW | Other Formats
Station Details ID: 250069 Name: TIDBINBILLA (PCS) Lat: -35.46 Lon: 148.94 Height: 883.0 m

Portable automatic weather stations (PAWS) are operated by other organisations, such as Fire and Emergency Services, and are included here by agreement. Portable stations may be deployed to a location for a short period and their location may be subject to change without notice. Wind observations from these stations are provided from heights of either three (3) or ten (10) metres above ground level (AGL).

Data from the previous 72 hours. | See also: Recent months for locations in New South Wales
Date/Time
EDT
Temp
°C
App
Temp
°C
Dew
Point
°C
Rel
Hum
%
Delta-T
°C
Wind Press
QNH
hPa
Press
MSL
hPa
Rain since
9am
mm
Dir  Spd
km/h
Gust
km/h
Spd
kts
Gust
kts
18/02:20pm 16.5 16.3 15.6 94 0.5 NE 11 13 6 7 1017.1 - 3.2
18/02:00pm 17.1 16.7 16.1 94 0.6 NNE 13 17 7 9 1017.3 - 3.0
18/01:50pm 17.1 16.3 16.1 94 0.6 NNE 15 17 8 9 1017.3 - 2.8
18/01:40pm 16.7 16.5 15.7 94 0.6 NE 11 13 6 7 1017.4 - 2.2
18/01:30pm 16.3 16.0 15.4 94 0.5 NE 11 15 6 8 1017.5 - 1.2
18/01:20pm 16.3 16.0 15.4 94 0.5 NE 11 13 6 7 1017.6 - 0.4
18/01:10pm 16.4 15.8 15.6 95 0.5 NE 13 17 7 9 1017.5 - 0.4
18/01:00pm 16.6 15.3 15.7 94 0.5 NNE 17 20 9 11 1017.5 - 0.4
18/12:50pm 16.9 15.7 16.1 95 0.5 NNE 17 19 9 10 1017.5 - 0.4
18/12:40pm 16.7 16.2 15.9 95 0.5 NNE 13 15 7 8 1017.5 - 0.4
18/12:30pm 16.9 16.1 16.0 94 0.6 NNE 15 15 8 8 1017.4 - 0.4
18/12:00pm 17.7 16.5 16.2 91 0.9 NNE 17 20 9 11 1017.4 - 0.4
18/11:50am 18.3 17.7 16.7 90 1.0 NE 15 19 8 10 1017.4 - 0.4
18/11:40am 19.1 19.7 16.8 86 1.4 NNE 9 11 5 6 1017.8 - 0.4
18/11:30am 19.0 19.5 16.5 85 1.6 NNE 9 13 5 7 1017.5 - 0.4
18/11:20am 18.8 20.0 16.9 89 1.2 NE 6 9 3 5 1017.3 - 0.4
18/11:10am 18.7 19.5 15.9 84 1.7 NNE 6 7 3 4 1017.7 - 0.4
18/11:00am 18.6 19.7 16.7 89 1.2 NNE 6 7 3 4 1017.5 - 0.4
18/10:50am 19.2 20.2 16.3 83 1.8 NNE 6 7 3 4 1017.5 - 0.0
18/10:40am 19.7 20.6 16.0 79 2.3 NNE 6 9 3 5 1017.4 - 0.0
18/10:30am 19.7 20.5 15.9 79 2.4 ENE 6 7 3 4 1017.3 - 0.0
18/10:20am 19.7 20.4 16.0 79 2.3 NNE 7 9 4 5 1017.3 - 0.0
18/10:10am 19.8 20.6 16.4 81 2.1 N 7 9 4 5 1017.2 - 0.0
18/09:50am 20.2 21.1 16.0 77 2.6 NNE 6 6 3 3 1017.0 - 0.0
18/09:30am 20.7 22.7 16.1 75 2.9 CALM 0 2 0 1 1017.1 - 0.0
18/09:20am 20.7 22.6 15.7 73 3.1 CALM 0 2 0 1 1016.9 - 0.0
18/09:10am 20.5 22.5 16.1 76 2.7 CALM 0 0 0 0 1016.8 - 0.0
18/09:00am 20.3 22.2 15.7 75 2.8 CALM 0 2 0 1 1016.8 - 0.0
18/08:50am 20.2 21.0 15.9 76 2.7 N 6 7 3 4 1016.7 - 0.0
18/08:40am 19.9 21.7 15.5 76 2.7 CALM 0 2 0 1 1016.7 - 0.0
18/08:30am 19.6 21.8 16.4 82 2.0 CALM 0 0 0 0 1016.7 - 0.0
18/08:20am 19.4 21.5 16.2 82 2.0 CALM 0 2 0 1 1016.7 - 0.0
18/08:10am 19.6 21.2 15.9 79 2.3 NW 2 4 1 2 1016.7 - 0.0
18/08:00am 19.4 21.0 16.0 81 2.1 NNW 2 4 1 2 1016.5 - 0.0
18/07:50am 19.1 20.8 15.1 77 2.4 CALM 0 2 0 1 1016.4 - 0.0
18/07:40am 18.8 20.4 15.0 78 2.3 CALM 0 0 0 0 1016.3 - 0.0
18/07:30am 18.6 20.3 15.3 81 2.0 CALM 0 0 0 0 1016.2 - 0.0
18/07:20am 18.3 19.9 14.9 80 2.1 CALM 0 0 0 0 1016.1 - 0.0
18/07:10am 18.2 19.8 14.9 81 2.0 CALM 0 0 0 0 1016.0 - 0.0
18/07:00am 18.1 19.2 14.5 79 2.2 SSW 2 4 1 2 1016.0 - 0.0
18/06:50am 18.3 19.6 14.2 77 2.5 CALM 0 0 0 0 1015.8 - 0.0
18/06:40am 18.4 19.4 14.4 77 2.4 W 2 2 1 1 1015.7 - 0.0
18/06:30am 18.7 20.0 14.2 75 2.7 CALM 0 4 0 2 1015.5 - 0.0
18/06:20am 18.8 20.0 13.8 72 3.0 CALM 0 2 0 1 1015.4 - 0.0
18/06:10am 18.8 19.6 13.6 72 3.1 SW 2 6 1 3 1015.4 - 0.0
18/06:00am 18.8 18.8 13.7 72 3.0 SSW 6 7 3 4 1015.4 - 0.0
18/05:50am 18.8 18.6 13.7 72 3.0 SSW 7 9 4 5 1015.4 - 0.0
18/05:40am 18.8 18.7 13.8 72 3.0 S 7 9 4 5 1015.3 - 0.0
18/05:30am 18.8 17.9 13.6 72 3.1 S 11 13 6 7 1015.3 - 0.0
18/05:20am 18.7 17.4 13.7 72 3.0 S 13 17 7 9 1015.2 - 0.0
18/05:10am 18.6 17.0 13.8 73 2.9 S 15 17 8 9 1015.1 - 0.0
18/05:00am 18.4 17.9 13.7 74 2.8 S 9 15 5 8 1015.1 - 0.0
18/04:50am 18.2 17.7 13.8 75 2.6 SSE 9 13 5 7 1015.0 - 0.0
18/04:40am 18.2 18.4 14.2 77 2.4 ESE 6 7 3 4 1014.9 - 0.0
18/04:30am 18.2 18.3 14.0 76 2.5 NE 6 9 3 5 1014.9 - 0.0
18/04:20am 18.3 16.8 14.1 76 2.5 SSW 15 22 8 12 1014.8 - 0.0
18/04:10am 18.3 15.5 14.3 77 2.4 SSW 22 30 12 16 1014.7 - 0.0
18/04:00am 18.3 15.5 14.3 77 2.4 SSW 22 24 12 13 1014.8 - 0.0
18/03:50am 18.4 15.6 14.2 76 2.5 SSW 22 30 12 16 1015.0 - 0.0
18/03:40am 18.2 15.3 14.0 76 2.5 SSW 22 28 12 15 1015.1 - 0.0
18/03:30am 18.0 16.5 14.3 79 2.2 SSW 15 19 8 10 1015.4 - 0.0
18/03:20am 18.2 16.7 14.3 78 2.3 SW 15 19 8 10 1015.6 - 0.0
18/03:10am 18.5 17.0 14.3 76 2.5 SW 15 19 8 10 1015.8 - 0.0
18/03:00am 18.9 17.3 13.8 72 3.0 WSW 15 17 8 9 1015.9 - 0.0
18/02:50am 18.8 17.1 13.6 72 3.1 WSW 15 20 8 11 1015.9 - 0.0
18/02:40am 18.5 17.5 13.3 71 3.1 WSW 11 17 6 9 1015.9 - 0.0
18/02:30am 18.2 18.0 13.6 74 2.7 WNW 7 11 4 6 1016.0 - 0.0
18/02:20am 18.5 19.1 14.2 76 2.6 NNW 4 7 2 4 1016.1 - 0.0
18/02:10am 18.6 19.7 13.4 72 3.1 CALM 0 4 0 2 1015.9 - 0.0
18/02:00am 18.4 18.6 13.2 71 3.1 SSE 4 7 2 4 1015.9 - 0.0
18/01:50am 18.3 18.7 13.6 74 2.8 SSW 4 7 2 4 1016.1 - 0.0
18/01:40am 18.2 18.8 13.2 72 2.9 ESE 2 4 1 2 1016.1 - 0.0
18/01:30am 18.2 18.8 14.2 77 2.4 N 4 7 2 4 1016.2 - 0.0
18/01:20am 18.3 18.5 14.1 76 2.5 NNE 6 9 3 5 1016.2 - 0.0
18/01:10am 18.6 19.4 13.7 73 2.9 NNE 2 6 1 3 1016.3 - 0.0
18/01:00am 18.6 18.6 13.7 73 2.9 NE 6 7 3 4 1016.3 - 0.0
18/12:50am 19.0 19.7 13.4 70 3.3 N 2 4 1 2 1016.4 - 0.0
18/12:40am 18.8 19.3 12.9 68 3.5 ENE 2 4 1 2 1016.4 - 0.0
18/12:30am 18.8 19.0 13.2 70 3.3 NW 4 6 2 3 1016.5 - 0.0
18/12:20am 18.9 19.2 13.5 71 3.2 NNE 4 6 2 3 1016.6 - 0.0
18/12:10am 18.9 18.9 12.3 65 3.8 SE 4 6 2 3 1016.6 - 0.0
18/12:00am 18.8 19.2 13.7 72 3.0 S 4 6 2 3 1016.7 - 0.0
 
Date/Time
EDT
Temp
°C
App
Temp
°C
Dew
Point
°C
Rel
Hum
%
Delta-T
°C
Wind Press
QNH
hPa
Press
MSL
hPa
Rain since
9am
mm
Dir  Spd
km/h
Gust
km/h
Spd
kts
Gust
kts
17/11:50pm 19.1 19.6 13.9 72 3.1 S 4 7 2 4 1016.7 - 0.0
17/11:40pm 19.7 20.2 12.7 64 4.1 N 2 4 1 2 1016.7 - 0.0
17/11:30pm 19.8 19.6 13.0 65 4.0 N 6 7 3 4 1016.8 - 0.0
17/11:20pm 20.1 20.4 12.1 60 4.7 NW 2 4 1 2 1016.7 - 0.0
17/11:10pm 20.1 20.1 12.4 61 4.5 S 4 9 2 5 1016.6 - 0.0
17/11:00pm 20.2 18.9 12.4 61 4.6 SSW 11 19 6 10 1016.5 - 0.0
17/10:50pm 20.1 17.9 12.1 60 4.7 SSW 15 15 8 8 1016.5 - 0.0
17/10:40pm 20.0 18.8 12.7 63 4.3 S 11 15 6 8 1016.6 - 0.0
17/10:30pm 20.1 19.6 12.6 62 4.4 S 7 11 4 6 1016.8 - 0.0
17/10:20pm 20.1 18.9 12.8 63 4.3 S 11 13 6 7 1016.6 - 0.0
17/10:10pm 20.1 18.8 12.6 62 4.4 S 11 15 6 8 1016.5 - 0.0
17/10:00pm 20.2 18.7 13.0 63 4.3 SSW 13 17 7 9 1016.7 - 0.0
17/09:50pm 20.0 19.5 12.8 63 4.2 S 7 11 4 6 1016.5 - 0.0
17/09:40pm 20.2 21.0 12.7 62 4.4 CALM 0 2 0 1 1016.6 - 0.0
17/09:30pm 20.2 20.4 12.9 63 4.3 WSW 4 7 2 4 1016.5 - 0.0
17/09:20pm 20.3 19.5 12.9 62 4.4 SW 9 15 5 8 1016.3 - 0.0
17/09:10pm 20.4 17.7 12.8 61 4.5 SW 19 22 10 12 1016.1 - 0.0
17/09:00pm 20.6 17.4 13.0 61 4.5 SW 22 26 12 14 1016.0 - 0.0
17/08:50pm 20.7 16.8 13.4 63 4.4 SW 26 32 14 17 1016.2 - 0.0
17/08:40pm 20.8 16.6 13.6 63 4.3 SW 28 30 15 16 1016.0 - 0.0
17/08:30pm 21.0 16.8 13.4 62 4.5 SW 28 35 15 19 1016.1 - 0.0
17/08:20pm 21.0 18.3 13.5 62 4.5 WSW 20 24 11 13 1016.1 - 0.0
17/08:10pm 21.2 18.1 13.5 61 4.6 WSW 22 30 12 16 1016.0 - 0.0
17/08:00pm 21.1 19.0 13.5 62 4.5 WSW 17 24 9 13 1015.9 - 0.0
17/07:50pm 21.1 19.5 14.0 64 4.3 SW 15 20 8 11 1015.8 - 0.0
17/07:40pm 21.3 18.8 13.6 61 4.6 SW 19 24 10 13 1015.6 - 0.0
17/07:30pm 21.3 20.3 14.7 66 4.0 SW 13 17 7 9 1015.6 - 0.0
17/07:20pm 21.4 20.6 14.0 62 4.5 SW 11 17 6 9 1015.5 - 0.0
17/07:10pm 21.7 20.9 14.0 61 4.7 SW 11 17 6 9 1015.4 - 0.0
17/07:00pm 22.1 20.6 14.3 61 4.8 WSW 15 24 8 13 1015.4 - 0.0
17/06:50pm 22.4 21.3 14.4 60 4.9 WSW 13 19 7 10 1015.3 - 0.0
17/06:40pm 23.1 21.4 13.6 55 5.7 SW 15 24 8 13 1015.1 - 0.0
17/06:30pm 22.8 22.3 15.0 61 4.8 SW 11 15 6 8 1015.1 - 0.0
17/06:20pm 22.8 23.2 15.4 63 4.6 SW 7 13 4 7 1015.1 - 0.0
17/06:10pm 22.7 22.7 15.2 62 4.6 WSW 9 15 5 8 1015.1 - 0.0
17/06:00pm 22.6 23.5 15.1 62 4.6 W 4 9 2 5 1015.0 - 0.0
17/05:50pm 22.4 23.1 16.1 67 4.0 SW 7 9 4 5 1015.1 - 0.0
17/05:40pm 22.2 22.4 15.7 66 4.1 SW 9 13 5 7 1015.0 - 0.0
17/05:20pm 22.3 22.9 15.9 67 4.0 WSW 7 11 4 6 1015.0 - 0.0
17/05:10pm 22.4 22.8 15.2 63 4.5 WSW 7 9 4 5 1014.9 - 0.0
17/05:00pm 22.2 22.7 15.1 64 4.4 SSW 6 9 3 5 1014.8 - 0.0
17/04:30pm 21.3 19.8 14.2 64 4.3 SW 15 19 8 10 1015.1 - 0.0
17/04:20pm 21.3 19.2 14.8 66 4.0 SW 19 22 10 12 1015.0 - 0.0
17/04:10pm 21.0 18.0 13.8 63 4.3 SW 22 24 12 13 1015.0 - 0.0
17/03:50pm 21.1 18.6 14.2 64 4.2 SW 20 24 11 13 1015.1 - 0.0
17/03:40pm 21.4 19.0 14.3 64 4.3 SW 20 24 11 13 1015.0 - 0.0
17/03:30pm 21.8 19.4 13.7 60 4.9 SW 19 24 10 13 1015.0 - 0.0
17/03:20pm 22.1 20.9 14.1 60 4.9 SW 13 20 7 11 1015.0 - 0.0
17/03:00pm 22.9 24.0 15.7 64 4.5 SW 4 7 2 4 1015.0 - 0.0
17/02:50pm 22.7 23.7 14.3 59 5.1 W 2 4 1 2 1015.1 - 0.0
17/02:40pm 22.6 23.9 15.2 63 4.6 E 2 4 1 2 1015.1 - 0.0
17/02:20pm 22.5 22.5 14.2 59 5.1 WSW 7 15 4 8 1015.3 - 0.0
17/02:10pm 22.8 22.9 14.4 59 5.1 W 7 13 4 7 1015.3 - 0.0
17/02:00pm 22.7 22.3 13.0 54 5.8 SW 7 11 4 6 1015.3 - 0.0
17/01:40pm 22.6 20.2 12.6 53 5.9 S 17 24 9 13 1015.2 - 0.0
17/01:20pm 22.8 19.7 12.3 51 6.2 SSW 20 24 11 13 1015.3 - 0.0
17/01:00pm 22.8 20.4 12.7 53 6.0 SSW 17 22 9 12 1015.5 - 0.0
17/12:50pm 22.9 20.3 11.9 50 6.5 SW 17 22 9 12 1015.5 - 0.0
17/12:40pm 23.1 20.9 13.3 54 5.9 SW 17 26 9 14 1015.6 - 0.0
17/12:10pm 24.4 22.2 12.0 46 7.3 WSW 15 20 8 11 1015.5 - 0.0
17/12:00pm 24.4 21.9 12.3 46 7.2 WSW 17 20 9 11 1015.5 - 0.0
17/11:30am 25.5 23.2 12.9 45 7.6 WSW 17 20 9 11 1015.6 - 0.0
17/11:20am 25.5 23.4 12.5 44 7.8 WSW 15 19 8 10 1015.7 - 0.0
17/11:10am 25.1 24.3 13.0 47 7.3 WSW 9 15 5 8 1015.7 - 0.0
17/11:00am 24.6 25.0 15.3 56 5.8 WSW 7 9 4 5 1015.8 - 0.0
17/10:20am 23.1 25.0 17.6 71 3.5 SW 4 7 2 4 1015.9 - 0.0
17/10:10am 23.1 25.1 16.9 68 3.9 SSW 2 4 1 2 1015.6 - 0.0
17/10:00am 22.8 24.5 17.1 70 3.6 WNW 4 6 2 3 1015.5 - 0.0
17/09:50am 22.2 24.5 17.6 75 3.0 NW 2 6 1 3 1015.5 - 0.0
17/09:30am 21.4 23.4 17.0 76 2.8 NNE 2 2 1 1 1015.4 - 0.0
17/09:20am 20.7 21.8 16.6 77 2.6 NW 6 9 3 5 1015.6 - 0.0
17/08:50am 21.5 24.0 17.2 76 2.7 CALM 0 4 0 2 1015.3 - 0.0
17/08:40am 21.4 23.9 17.2 77 2.7 CALM 0 2 0 1 1015.4 - 0.0
17/08:30am 21.6 23.5 16.7 73 3.1 NE 2 4 1 2 1015.4 - 0.0
17/08:20am 20.8 23.1 16.7 77 2.6 CALM 0 2 0 1 1015.3 - 0.0
17/08:10am 19.8 21.5 16.2 80 2.2 NNE 2 4 1 2 1015.7 - 0.0
17/08:00am 19.0 20.8 16.5 85 1.6 N 2 4 1 2 1015.7 - 0.0
17/07:50am 18.6 20.6 16.0 85 1.6 CALM 0 0 0 0 1015.3 - 0.0
17/07:40am 18.4 19.8 15.4 83 1.8 SSE 2 2 1 1 1015.2 - 0.0
17/07:30am 17.9 18.9 15.4 85 1.5 SSW 4 6 2 3 1015.4 - 0.0
17/07:20am 17.2 18.9 15.2 88 1.2 CALM 0 2 0 1 1015.1 - 0.0
17/07:10am 16.4 18.0 14.9 91 0.9 CALM 0 2 0 1 1015.4 - 0.0
17/07:00am 15.8 16.6 14.7 93 0.7 SSE 4 4 2 2 1015.2 - 0.0
17/06:50am 15.7 16.4 14.6 93 0.7 SSE 4 6 2 3 1014.9 - 0.0
17/06:40am 15.5 16.2 14.4 93 0.7 S 4 6 2 3 1013.9 - 0.0
17/06:30am 15.5 16.2 14.4 93 0.7 S 4 6 2 3 1014.9 - 0.0
17/06:20am 15.6 17.1 14.6 94 0.6 CALM 0 0 0 0 1014.6 - 0.0
17/06:10am 15.7 17.1 14.5 93 0.7 CALM 0 0 0 0 1014.2 - 0.0
17/06:00am 15.9 17.4 14.7 93 0.7 CALM 0 0 0 0 1014.1 - 0.0
17/05:50am 16.0 17.5 14.7 92 0.8 CALM 0 0 0 0 1014.5 - 0.0
17/05:40am 16.1 17.3 14.9 93 0.7 S 2 4 1 2 1014.3 - 0.0
17/05:30am 16.4 18.2 15.6 95 0.5 CALM 0 4 0 2 1014.2 - 0.0
17/05:20am 16.3 18.1 15.5 95 0.5 CALM 0 0 0 0 1014.2 - 0.0
17/05:10am 16.3 17.7 15.5 95 0.5 SSW 2 4 1 2 1014.3 - 0.0
17/05:00am 16.3 18.1 15.5 95 0.5 CALM 0 2 0 1 1014.2 - 0.0
17/04:50am 16.3 18.1 15.6 96 0.4 CALM 0 2 0 1 1014.1 - 0.0
17/04:40am 16.5 18.4 15.8 96 0.4 CALM 0 0 0 0 1014.3 - 0.0
17/04:30am 16.6 18.1 15.8 95 0.5 S 2 4 1 2 1014.3 - 0.0
17/04:20am 16.6 17.8 15.8 95 0.5 SSW 4 4 2 2 1014.5 - 0.0
17/04:10am 16.8 18.8 15.9 94 0.6 CALM 0 4 0 2 1014.5 - 0.0
17/04:00am 16.9 18.5 16.0 94 0.6 S 2 4 1 2 1014.4 - 0.0
17/03:50am 17.0 18.3 16.1 94 0.6 SSW 4 6 2 3 1014.5 - 0.0
17/03:40am 17.1 18.8 16.2 94 0.6 SSW 2 4 1 2 1014.6 - 0.0
17/03:30am 17.2 19.3 16.2 94 0.6 CALM 0 0 0 0 1014.8 - 0.0
17/03:20am 17.2 19.3 16.2 94 0.6 CALM 0 4 0 2 1014.9 - 0.0
17/03:10am 17.2 18.9 16.1 93 0.7 NNE 2 4 1 2 1014.9 - 0.0
17/03:00am 17.2 19.2 16.1 93 0.7 CALM 0 0 0 0 1014.8 - 0.0
17/02:50am 17.1 19.1 16.1 94 0.6 CALM 0 2 0 1 1014.8 - 0.0
17/02:20am 17.1 19.2 16.2 94 0.6 CALM 0 4 0 2 1015.0 - 0.0
17/02:10am 17.3 19.4 16.2 93 0.7 CALM 0 2 0 1 1015.4 - 0.0
17/02:00am 17.5 19.2 16.2 92 0.8 NNE 2 4 1 2 1015.5 - 0.0
17/01:40am 17.7 19.4 16.1 90 1.0 E 2 4 1 2 1015.6 - 0.0
17/01:20am 17.8 19.2 16.3 91 0.9 ENE 4 4 2 2 1015.9 - 0.0
17/01:00am 18.0 19.0 16.3 90 1.1 NE 6 6 3 3 1015.9 - 0.0
17/12:20am 18.1 19.1 16.4 90 1.1 NNE 6 7 3 4 1015.7 - 0.0
17/12:10am 18.1 18.9 16.3 89 1.1 NNE 7 11 4 6 1015.6 - 0.0
17/12:00am 18.2 19.0 16.4 89 1.1 NE 7 13 4 7 1015.3 - 0.0
 
Date/Time
EDT
Temp
°C
App
Temp
°C
Dew
Point
°C
Rel
Hum
%
Delta-T
°C
Wind Press
QNH
hPa
Press
MSL
hPa
Rain since
9am
mm
Dir  Spd
km/h
Gust
km/h
Spd
kts
Gust
kts
16/11:50pm 18.3 18.4 16.5 89 1.1 NE 11 17 6 9 1015.1 - 0.0
16/11:40pm 18.4 18.2 16.6 89 1.1 NE 13 15 7 8 1015.3 - 0.0
16/11:00pm 18.9 19.5 16.9 88 1.3 NE 9 11 5 6 1015.5 - 0.0
16/10:50pm 18.9 19.5 16.8 87 1.3 NNE 9 11 5 6 1015.5 - 0.0
16/10:40pm 19.2 19.4 16.8 86 1.5 NE 11 13 6 7 1015.1 - 0.0
16/10:30pm 19.3 19.5 16.8 85 1.6 ENE 11 13 6 7 1015.1 - 0.0
16/10:20pm 19.4 20.0 16.7 84 1.7 ENE 9 11 5 6 1015.3 - 0.0
16/10:10pm 19.8 20.4 16.8 83 1.9 ENE 9 11 5 6 1014.9 - 0.0
16/10:00pm 20.1 19.9 16.7 81 2.1 E 13 15 7 8 1014.7 - 0.0
16/09:50pm 20.6 20.6 16.2 76 2.7 ENE 11 13 6 7 1014.6 - 0.0
16/09:40pm 21.7 20.1 15.0 65 4.1 E 17 19 9 10 1014.1 - 0.0
16/09:30pm 22.5 19.5 7.7 38 8.1 ESE 13 19 7 10 1013.5 - 0.0
16/09:20pm 22.7 20.1 5.9 33 8.9 SSE 9 11 5 6 1013.3 - 0.0
16/09:10pm 23.0 19.6 6.1 33 9.0 S 13 15 7 8 1013.0 - 0.0
16/08:50pm 22.5 19.7 7.1 37 8.3 SSW 11 13 6 7 1013.0 - 0.0
16/08:40pm 22.4 19.3 7.3 37 8.2 SSW 13 15 7 8 1013.0 - 0.0
16/08:30pm 22.5 19.6 8.0 39 7.9 SSW 13 15 7 8 1012.8 - 0.0
16/08:20pm 22.7 20.5 7.9 38 8.1 S 9 11 5 6 1012.5 - 0.0
16/08:10pm 23.0 21.2 9.4 42 7.7 S 9 9 5 5 1012.5 - 0.0
16/08:00pm 24.3 23.2 10.5 41 8.0 S 7 9 4 5 1012.6 - 0.0
16/07:50pm 25.5 24.3 9.7 37 9.0 SSW 6 7 3 4 1012.3 - 0.0
16/07:30pm 26.5 25.4 10.8 37 9.2 S 7 9 4 5 1012.3 - 0.0
16/07:20pm 27.8 26.8 11.0 35 9.9 SW 7 9 4 5 1012.2 - 0.0
16/07:10pm 28.5 27.6 11.5 34 10.2 SSW 7 11 4 6 1012.1 - 0.0
16/07:00pm 28.6 27.1 10.7 32 10.6 SSW 9 13 5 7 1011.9 - 0.0
16/06:50pm 29.1 27.1 10.0 30 11.2 SW 11 13 6 7 1012.0 - 0.0
16/06:30pm 29.7 29.7 12.3 34 10.6 SSE 4 9 2 5 1011.7 - 0.0
16/06:20pm 29.4 28.8 11.6 33 10.7 WNW 6 9 3 5 1011.6 - 0.0
16/06:00pm 29.2 28.2 13.4 38 9.7 SSW 11 15 6 8 1011.5 - 0.0
16/05:50pm 29.6 27.5 11.0 31 11.1 WSW 13 20 7 11 1011.3 - 0.0
16/05:40pm 29.6 28.1 11.8 33 10.7 WSW 11 13 6 7 1011.4 - 0.0
16/05:30pm 29.7 27.6 11.2 31 11.1 WSW 13 17 7 9 1011.6 - 0.0
16/05:10pm 30.2 30.2 14.1 37 10.1 WSW 7 15 4 8 1011.5 - 0.0
16/05:00pm 30.2 29.3 12.6 34 10.8 W 9 15 5 8 1011.5 - 0.0
16/04:30pm 30.7 30.6 13.3 34 10.8 WSW 6 9 3 5 1011.7 - 0.0
16/04:10pm 31.2 31.6 14.8 37 10.4 NW 6 9 3 5 1011.8 - 0.0
16/03:00pm 29.8 30.6 17.3 47 8.2 NNW 9 15 5 8 1012.1 - 0.0
16/02:50pm 28.9 30.1 19.1 55 6.6 N 11 15 6 8 1012.2 - 0.0
16/02:40pm 29.2 30.7 18.9 53 6.9 N 9 15 5 8 1012.3 - 0.0
16/02:30pm 28.5 29.6 18.0 53 6.9 N 9 13 5 7 1012.5 - 0.0
16/02:20pm 27.8 28.1 18.0 55 6.4 N 13 15 7 8 1012.6 - 0.0
16/02:10pm 27.9 28.8 18.4 56 6.3 N 11 13 6 7 1012.7 - 0.0
16/01:50pm 27.4 28.4 17.8 55 6.3 N 9 11 5 6 1012.8 - 0.0
16/11:30am 22.5 22.2 16.5 69 3.8 N 13 17 7 9 1014.1 - 0.0
16/11:20am 22.1 22.6 16.5 70 3.5 N 9 13 5 7 1014.0 - 0.0
16/10:10am 21.5 21.7 16.8 74 3.0 NE 11 13 6 7 1013.8 - 0.0
16/10:00am 20.7 20.9 16.8 78 2.5 NE 11 15 6 8 1013.8 - 0.0
16/09:50am 19.5 20.7 15.9 80 2.2 NNE 4 6 2 3 1013.8 - 0.0
16/09:40am 20.3 21.2 16.1 77 2.6 N 6 6 3 3 1013.8 - 0.0
16/09:30am 20.4 21.3 16.1 76 2.7 NNE 6 7 3 4 1013.8 - 0.0
16/09:20am 18.9 19.6 15.6 81 2.0 NNE 6 6 3 3 1013.8 - 0.0
16/09:00am 18.3 19.0 15.5 84 1.7 N 6 7 3 4 1013.7 - 0.2
16/08:50am 17.9 18.4 15.6 86 1.4 NNE 7 9 4 5 1013.7 - 0.2
16/08:00am 19.3 20.2 16.0 81 2.0 NNE 6 6 3 3 1013.0 - 0.2
16/07:50am 19.3 20.5 15.9 81 2.1 NNE 4 6 2 3 1012.9 - 0.2
16/07:40am 19.1 20.7 15.9 82 2.0 N 2 4 1 2 1012.7 - 0.2
16/07:30am 18.6 20.0 15.3 81 2.0 N 2 4 1 2 1012.6 - 0.2
16/07:20am 17.6 19.0 14.3 81 2.0 CALM 0 0 0 0 1012.5 - 0.2
16/07:10am 15.9 16.9 14.3 90 0.9 SSE 2 4 1 2 1012.4 - 0.2
16/07:00am 15.4 16.3 14.1 92 0.8 W 2 4 1 2 1012.3 - 0.2
16/06:50am 15.4 16.7 14.2 92 0.7 CALM 0 2 0 1 1012.2 - 0.2
16/06:40am 15.4 15.9 14.1 92 0.8 S 4 4 2 2 1012.1 - 0.2
16/06:30am 15.5 16.5 14.2 92 0.8 WSW 2 4 1 2 1012.1 - 0.2
16/06:20am 15.8 16.8 14.2 90 0.9 NNE 2 4 1 2 1011.9 - 0.2
16/06:10am 15.8 16.8 14.2 90 0.9 NNE 2 4 1 2 1011.8 - 0.2
16/06:00am 15.9 16.1 14.1 89 1.1 NE 6 6 3 3 1011.6 - 0.2
16/05:50am 15.9 16.1 14.2 90 1.0 NE 6 6 3 3 1011.3 - 0.2
16/05:40am 16.4 17.1 14.4 88 1.2 NNE 4 6 2 3 1011.3 - 0.2
16/05:30am 16.7 16.9 14.3 86 1.4 NE 6 6 3 3 1011.1 - 0.2
16/05:20am 16.6 16.6 14.3 86 1.4 NE 7 7 4 4 1010.9 - 0.2
16/05:10am 16.8 17.9 14.6 87 1.3 N 2 6 1 3 1010.8 - 0.2
16/05:00am 17.2 18.7 14.7 85 1.5 CALM 0 0 0 0 1010.6 - 0.2
16/04:50am 17.4 18.5 14.5 83 1.7 NE 2 4 1 2 1010.4 - 0.2
16/04:40am 17.5 19.0 14.6 83 1.7 CALM 0 2 0 1 1010.3 - 0.2
16/04:30am 17.7 18.4 14.5 81 1.9 S 4 6 2 3 1010.2 - 0.2
16/04:20am 17.7 17.8 14.4 81 2.0 SSE 7 7 4 4 1010.2 - 0.2
16/04:10am 17.6 17.7 14.4 81 1.9 SSE 7 7 4 4 1010.2 - 0.2
16/04:00am 17.6 17.7 14.5 82 1.9 S 7 7 4 4 1010.1 - 0.2
16/03:50am 17.4 17.5 14.5 83 1.7 SSE 7 9 4 5 1010.2 - 0.2
16/03:40am 17.5 17.2 14.5 82 1.8 S 9 9 5 5 1010.3 - 0.2
16/03:30am 17.4 17.7 14.5 83 1.7 S 6 7 3 4 1010.4 - 0.2
16/03:20am 17.4 17.7 14.4 82 1.8 S 6 7 3 4 1010.4 - 0.2
16/03:00am 17.1 18.5 14.5 85 1.6 CALM 0 4 0 2 1010.4 - 0.2
16/02:50am 17.2 18.6 14.5 84 1.6 CALM 0 2 0 1 1010.4 - 0.2
16/02:40am 17.2 18.3 14.5 84 1.6 ENE 2 4 1 2 1010.3 - 0.2
16/02:30am 17.2 18.3 14.6 85 1.6 SSE 2 4 1 2 1010.3 - 0.2
16/02:20am 17.6 18.8 15.0 85 1.6 SSW 2 4 1 2 1010.2 - 0.2
16/02:10am 18.6 19.8 15.0 79 2.2 ESE 2 7 1 4 1010.2 - 0.2
16/02:00am 19.0 18.7 14.5 75 2.7 ESE 9 13 5 7 1010.1 - 0.2
16/01:50am 19.5 19.3 14.8 74 2.9 SE 9 13 5 7 1010.2 - 0.2
16/01:40am 19.8 18.8 14.5 71 3.2 S 13 15 7 8 1010.1 - 0.2
16/01:30am 20.0 18.9 14.3 69 3.4 S 13 17 7 9 1010.2 - 0.2
16/01:20am 20.3 19.2 14.4 69 3.6 S 13 17 7 9 1010.1 - 0.2
16/01:10am 20.4 18.9 14.3 68 3.7 S 15 17 8 9 1010.3 - 0.2
16/01:00am 20.1 18.6 14.3 69 3.5 S 15 19 8 10 1010.2 - 0.2
16/12:50am 19.9 18.5 14.4 70 3.3 SSW 15 15 8 8 1010.3 - 0.2
16/12:40am 20.0 19.0 14.7 71 3.2 S 13 15 7 8 1010.5 - 0.2
16/12:30am 20.0 19.0 14.7 71 3.2 S 13 15 7 8 1010.6 - 0.2
16/12:20am 20.1 19.2 14.9 72 3.2 S 13 13 7 7 1010.5 - 0.2
16/12:10am 20.3 19.3 14.7 70 3.4 S 13 15 7 8 1010.3 - 0.2
16/12:00am 20.2 19.3 14.8 71 3.3 S 13 15 7 8 1010.3 - 0.2
 
Date/Time
EDT
Temp
°C
App
Temp
°C
Dew
Point
°C
Rel
Hum
%
Delta-T
°C
Wind Press
QNH
hPa
Press
MSL
hPa
Rain since
9am
mm
Dir  Spd
km/h
Gust
km/h
Spd
kts
Gust
kts
15/11:50pm 20.2 18.9 14.8 71 3.3 S 15 17 8 9 1010.3 - 0.2
15/11:40pm 20.3 19.4 14.9 71 3.3 S 13 15 7 8 1010.4 - 0.2
15/11:30pm 20.4 19.5 14.8 70 3.4 S 13 13 7 7 1010.3 - 0.2
15/11:20pm 20.3 19.3 14.7 70 3.4 S 13 13 7 7 1010.3 - 0.2
15/11:10pm 20.4 19.8 14.7 70 3.5 S 11 13 6 7 1010.2 - 0.2
15/11:00pm 20.5 20.1 14.2 67 3.8 S 9 11 5 6 1010.2 - 0.2
15/10:50pm 20.2 20.3 14.4 69 3.5 S 7 9 4 5 1010.1 - 0.2
15/10:40pm 20.3 20.5 14.6 70 3.5 SSW 7 9 4 5 1010.1 - 0.2
15/10:30pm 20.3 20.5 14.3 68 3.6 SSW 6 7 3 4 1010.0 - 0.2
15/10:20pm 20.4 20.4 14.3 68 3.7 S 7 9 4 5 1010.1 - 0.2
15/10:10pm 20.2 19.5 14.2 68 3.6 S 11 15 6 8 1009.8 - 0.2
15/10:00pm 20.1 19.9 14.6 70 3.3 SSW 9 11 5 6 1009.8 - 0.2
15/09:50pm 21.1 21.4 14.5 66 4.0 SW 6 7 3 4 1009.5 - 0.2
15/09:40pm 21.4 21.9 14.0 62 4.5 S 4 6 2 3 1009.4 - 0.2
15/09:30pm 21.7 22.1 13.7 60 4.8 SSW 4 6 2 3 1009.5 - 0.2
15/09:20pm 21.6 22.4 13.7 60 4.8 S 2 4 1 2 1009.4 - 0.2
15/09:10pm 21.5 22.6 13.6 60 4.7 CALM 0 2 0 1 1009.6 - 0.2
15/09:00pm 21.3 22.1 13.7 62 4.6 S 2 4 1 2 1009.7 - 0.2
15/08:50pm 21.0 21.1 13.9 64 4.3 SSE 6 6 3 3 1009.8 - 0.2
15/08:30pm 21.1 21.7 14.3 65 4.1 S 4 7 2 4 1009.8 - 0.2
15/08:00pm 21.4 21.4 15.3 68 3.8 S 9 11 5 6 1009.2 - 0.2
15/07:50pm 21.7 21.4 15.4 67 3.9 SSW 11 13 6 7 1009.2 - 0.2
15/07:40pm 22.1 22.5 16.3 69 3.6 SW 9 11 5 6 1008.8 - 0.2
15/07:30pm 22.8 23.0 15.8 64 4.4 SW 9 11 5 6 1007.8 - 0.2
15/07:10pm 25.2 25.5 17.1 60 5.2 SW 11 15 6 8 1007.6 - 0.2
15/07:00pm 26.1 27.2 17.1 57 5.8 SW 7 11 4 6 1008.1 - 0.2
15/06:40pm 24.9 26.7 16.5 59 5.4 SW 2 6 1 3 1008.5 - 0.2
15/06:30pm 23.8 25.2 16.5 63 4.6 W 4 6 2 3 1008.2 - 0.2
15/06:20pm 24.1 25.8 16.1 61 5.1 NW 2 4 1 2 1008.0 - 0.2
15/06:10pm 24.6 25.7 16.6 61 5.1 N 6 6 3 3 1008.1 - 0.2
15/06:00pm 25.5 26.6 16.5 57 5.7 NNW 6 7 3 4 1008.1 - 0.2
15/05:50pm 25.9 27.0 15.6 53 6.5 NW 4 6 2 3 1008.0 - 0.2
15/05:30pm 27.0 28.1 16.6 53 6.7 W 6 9 3 5 1008.0 - 0.2
15/05:20pm 28.4 29.9 17.6 52 7.1 WNW 6 9 3 5 1008.1 - 0.2
15/05:10pm 27.1 28.1 16.9 53 6.6 NW 7 11 4 6 1007.9 - 0.2
15/05:00pm 25.6 26.2 15.9 55 6.1 WSW 7 13 4 7 1007.8 - 0.2
15/04:40pm 26.6 26.9 16.1 52 6.7 WSW 9 15 5 8 1007.7 - 0.2
15/04:10pm 25.6 24.7 15.9 55 6.1 SW 15 22 8 12 1007.9 - 0.2
15/03:50pm 26.4 27.2 17.4 57 5.8 SSW 9 13 5 7 1007.9 - 0.2
15/03:40pm 27.1 27.5 15.4 48 7.4 W 7 15 4 8 1008.1 - 0.2
15/03:30pm 26.7 29.1 18.7 61 5.3 NNW 4 11 2 6 1008.3 - 0.2
15/03:20pm 25.9 27.6 18.6 64 4.8 N 7 9 4 5 1008.5 - 0.2
15/03:10pm 25.7 27.2 18.0 62 5.0 NNW 7 13 4 7 1008.4 - 0.2
15/02:50pm 25.3 27.5 19.2 69 4.0 N 6 13 3 7 1008.7 - 0.2

Other formats

Comma delimited format used in spreadsheet applications
http://www.bom.gov.au/fwo/IDN60801/IDN60801.99762.axf

JavaScript Object Notation format (JSON) in row-major order
http://www.bom.gov.au/fwo/IDN60801/IDN60801.99762.json

Data quality

Most of these data are generated automatically and are frequently updated. Quality checks on data are not normally performed. It is possible for incorrect values to appear. Refer to information at About Latest Weather Observations and please check the disclaimer before using these data.